createdAt,value
2022-10-21T00:00:38.782Z,15.30
2022-10-21T00:03:05.801Z,15.30
2022-10-21T00:05:32.959Z,15.28
2022-10-21T00:07:59.860Z,15.27
2022-10-21T00:10:26.742Z,15.25
2022-10-21T00:12:53.652Z,15.26
2022-10-21T00:15:20.628Z,15.28
2022-10-21T00:17:47.423Z,15.29
2022-10-21T00:20:14.280Z,15.29
2022-10-21T00:22:41.170Z,15.29
2022-10-21T00:25:08.668Z,15.28
2022-10-21T00:27:36.032Z,15.26
2022-10-21T00:30:05.922Z,15.28
2022-10-21T00:32:32.755Z,15.29
2022-10-21T00:34:59.820Z,15.30
2022-10-21T00:37:30.031Z,15.32
2022-10-21T00:39:57.042Z,15.35
2022-10-21T00:42:31.245Z,15.36
2022-10-21T00:45:18.916Z,15.39
2022-10-21T00:47:51.862Z,15.41
2022-10-21T00:50:43.541Z,15.45
2022-10-21T00:53:14.304Z,15.45
2022-10-21T00:55:47.441Z,15.45
2022-10-21T00:58:15.835Z,15.43
2022-10-21T01:00:42.724Z,15.43
2022-10-21T01:03:09.667Z,15.44
2022-10-21T01:05:39.508Z,15.46
2022-10-21T01:08:06.391Z,15.48
2022-10-21T01:10:33.267Z,15.46
2022-10-21T01:13:00.028Z,15.46
2022-10-21T01:15:45.277Z,15.45
2022-10-21T01:18:35.395Z,15.45
2022-10-21T01:21:41.913Z,15.43
2022-10-21T01:24:53.022Z,15.42
2022-10-21T01:27:57.136Z,15.43
2022-10-21T01:30:29.833Z,15.44
2022-10-21T01:33:04.640Z,15.41
2022-10-21T01:35:50.077Z,15.39
2022-10-21T01:38:41.546Z,15.39
2022-10-21T01:41:42.418Z,15.41
2022-10-21T01:44:11.840Z,15.41
2022-10-21T01:46:47.401Z,15.41
2022-10-21T01:49:39.368Z,15.43
2022-10-21T01:52:07.891Z,15.40
2022-10-21T01:54:40.483Z,15.41
2022-10-21T01:57:09.068Z,15.40
2022-10-21T01:59:36.345Z,15.39
2022-10-21T02:02:05.822Z,15.38
2022-10-21T02:04:36.425Z,15.38
2022-10-21T02:07:03.448Z,15.38
2022-10-21T02:12:17.675Z,15.41
2022-10-21T02:14:51.480Z,15.41
2022-10-21T02:17:20.847Z,15.41
2022-10-21T02:19:48.174Z,15.41
2022-10-21T02:22:20.672Z,15.40
2022-10-21T02:25:16.393Z,15.42
2022-10-21T02:27:43.696Z,15.44
2022-10-21T02:30:11.144Z,15.45
2022-10-21T02:32:58.169Z,15.48
2022-10-21T02:35:46.512Z,15.48
2022-10-21T02:38:39.221Z,15.49
2022-10-21T02:41:10.959Z,15.51
2022-10-21T02:43:52.770Z,15.54
2022-10-21T02:46:19.623Z,15.57
2022-10-21T02:48:48.133Z,15.57
2022-10-21T02:51:15.713Z,15.56
2022-10-21T02:53:43.021Z,15.58
2022-10-21T02:56:09.821Z,15.59
2022-10-21T02:58:38.325Z,15.61
2022-10-21T03:01:05.382Z,15.61
2022-10-21T03:03:32.347Z,15.60
2022-10-21T03:05:59.089Z,15.60
2022-10-21T03:08:25.949Z,15.59
2022-10-21T03:10:53.516Z,15.60
2022-10-21T03:13:21.407Z,15.61
2022-10-21T03:15:51.425Z,15.63
2022-10-21T03:18:18.762Z,15.66
2022-10-21T03:20:50.100Z,15.67
2022-10-21T03:23:17.850Z,15.69
2022-10-21T03:25:44.858Z,15.70
2022-10-21T03:28:11.978Z,15.73
2022-10-21T03:30:38.810Z,15.73
2022-10-21T03:33:05.645Z,15.74
2022-10-21T03:35:32.420Z,15.74
2022-10-21T03:37:59.281Z,15.74
2022-10-21T03:40:30.178Z,15.74
2022-10-21T03:43:00.307Z,15.74
2022-10-21T03:45:27.231Z,15.73
2022-10-21T03:47:54.071Z,15.72
2022-10-21T03:50:26.125Z,15.75
2022-10-21T03:52:53.455Z,15.74
2022-10-21T03:55:21.203Z,15.73
2022-10-21T03:57:48.501Z,15.74
2022-10-21T04:00:15.694Z,15.74
2022-10-21T04:02:43.345Z,15.76
2022-10-21T04:05:10.790Z,15.77
2022-10-21T04:07:37.781Z,15.77
2022-10-21T04:10:05.439Z,15.77
2022-10-21T04:12:32.264Z,15.77
2022-10-21T04:14:59.059Z,15.78
2022-10-21T04:17:26.065Z,15.78
2022-10-21T04:19:53.028Z,15.79
2022-10-21T04:22:19.792Z,15.79
2022-10-21T04:24:46.536Z,15.79
2022-10-21T04:27:13.349Z,15.80
2022-10-21T04:29:40.111Z,15.81
2022-10-21T04:32:07.001Z,15.85
2022-10-21T04:34:33.719Z,15.87
2022-10-21T04:37:04.084Z,15.87
2022-10-21T04:39:32.072Z,15.89
2022-10-21T04:41:59.004Z,15.90
2022-10-21T04:44:25.832Z,15.88
2022-10-21T04:46:52.638Z,15.87
2022-10-21T04:49:19.690Z,15.86
2022-10-21T04:51:46.581Z,15.87
2022-10-21T04:54:13.769Z,15.87
2022-10-21T04:56:41.647Z,15.86
2022-10-21T04:59:08.443Z,15.86
2022-10-21T05:01:35.285Z,15.83
2022-10-21T05:04:02.043Z,15.85
2022-10-21T05:06:28.794Z,15.85
2022-10-21T05:08:55.770Z,15.85
2022-10-21T05:11:22.730Z,15.83
2022-10-21T05:13:49.470Z,15.82
2022-10-21T05:16:16.354Z,15.79
2022-10-21T05:18:43.164Z,15.80
2022-10-21T05:21:09.912Z,15.82
2022-10-21T05:23:36.726Z,15.80
2022-10-21T05:26:03.557Z,15.78
2022-10-21T05:28:30.408Z,15.78
2022-10-21T05:30:57.160Z,15.76
2022-10-21T05:33:24.043Z,15.77
2022-10-21T05:36:02.030Z,15.77
2022-10-21T05:38:30.044Z,15.78
2022-10-21T05:41:00.587Z,15.79
2022-10-21T05:43:28.337Z,15.78
2022-10-21T05:45:55.104Z,15.77
2022-10-21T05:48:23.923Z,15.77
2022-10-21T05:50:53.836Z,15.78
2022-10-21T05:53:21.556Z,15.79
2022-10-21T05:56:07.004Z,15.81
2022-10-21T05:58:35.284Z,15.79
2022-10-21T06:01:02.538Z,15.80
2022-10-21T06:03:33.004Z,15.81
2022-10-21T06:06:01.769Z,15.82
2022-10-21T06:08:32.431Z,15.83
2022-10-21T06:11:15.741Z,15.88
2022-10-21T06:13:42.586Z,15.88
2022-10-21T06:16:10.185Z,15.88
2022-10-21T06:18:37.144Z,15.90
2022-10-21T06:21:04.344Z,15.90
2022-10-21T06:23:31.171Z,15.89
2022-10-21T06:26:00.154Z,15.90
2022-10-21T06:28:29.948Z,15.93
2022-10-21T06:30:57.244Z,15.94
2022-10-21T06:33:27.009Z,15.96
2022-10-21T06:35:55.257Z,15.98
2022-10-21T06:38:27.477Z,15.99
2022-10-21T06:41:01.871Z,16.01
2022-10-21T06:43:29.081Z,16.03
2022-10-21T06:46:01.270Z,16.04
2022-10-21T06:48:32.570Z,16.05
2022-10-21T06:51:10.115Z,16.06
2022-10-21T06:53:39.270Z,16.09
2022-10-21T06:56:15.055Z,16.10
2022-10-21T06:58:48.165Z,16.11
2022-10-21T07:01:33.795Z,16.12
2022-10-21T07:04:03.521Z,16.13
2022-10-21T07:06:30.764Z,16.14
2022-10-21T07:08:58.867Z,16.14
2022-10-21T07:11:27.270Z,16.14
2022-10-21T07:13:54.657Z,16.14
2022-10-21T07:16:27.509Z,16.18
2022-10-21T07:18:55.390Z,16.22
2022-10-21T07:21:24.873Z,16.21
2022-10-21T07:23:52.774Z,16.23
2022-10-21T07:26:21.450Z,16.24
2022-10-21T07:28:48.355Z,16.25
2022-10-21T07:31:16.139Z,16.29
2022-10-21T07:33:43.317Z,16.31
2022-10-21T07:36:20.357Z,16.36
2022-10-21T07:38:48.908Z,16.39
2022-10-21T07:41:25.475Z,16.41
2022-10-21T07:43:52.985Z,16.43
2022-10-21T07:46:21.473Z,16.45
2022-10-21T07:48:48.900Z,16.47
2022-10-21T07:51:18.637Z,16.51
2022-10-21T07:53:46.672Z,16.51
2022-10-21T07:56:16.415Z,16.53
2022-10-21T07:58:44.417Z,16.55
2022-10-21T08:01:11.656Z,16.60
2022-10-21T08:03:39.038Z,16.65
2022-10-21T08:06:07.219Z,16.71
2022-10-21T08:08:34.900Z,16.74
2022-10-21T08:11:02.484Z,16.80
2022-10-21T08:13:31.719Z,16.82
2022-10-21T08:15:59.014Z,16.87
2022-10-21T08:18:28.823Z,16.91
2022-10-21T08:20:57.736Z,16.96
2022-10-21T08:23:26.584Z,17.03
2022-10-21T08:25:56.822Z,17.09
2022-10-21T08:28:28.382Z,17.16
2022-10-21T08:31:06.750Z,17.21
2022-10-21T08:33:34.093Z,17.26
2022-10-21T08:36:06.236Z,17.30
2022-10-21T08:38:34.824Z,17.33
2022-10-21T08:41:02.725Z,17.34
2022-10-21T08:43:35.148Z,17.35
2022-10-21T08:46:07.698Z,17.36
2022-10-21T08:48:42.938Z,17.37
2022-10-21T08:51:23.060Z,17.40
2022-10-21T08:53:54.010Z,17.39
2022-10-21T08:56:21.066Z,17.42
2022-10-21T08:58:52.098Z,17.44
2022-10-21T09:01:38.485Z,17.47
2022-10-21T09:04:15.400Z,17.52
2022-10-21T09:06:45.020Z,17.59
2022-10-21T09:09:30.774Z,17.63
2022-10-21T09:12:18.619Z,17.70
2022-10-21T09:14:54.554Z,17.74
2022-10-21T09:17:36.344Z,17.79
2022-10-21T09:20:16.279Z,17.85
2022-10-21T09:23:21.332Z,17.86
2022-10-21T09:26:04.103Z,17.88
2022-10-21T09:28:31.757Z,17.91
2022-10-21T09:31:02.590Z,17.91
2022-10-21T09:33:32.483Z,17.91
2022-10-21T09:36:02.050Z,17.92
2022-10-21T09:38:48.379Z,17.92
2022-10-21T09:44:16.635Z,17.93
2022-10-21T09:46:46.301Z,17.93
2022-10-21T09:49:47.843Z,17.94
2022-10-21T09:52:11.823Z,17.94
2022-10-21T09:54:42.200Z,17.98
2022-10-21T09:57:31.850Z,17.99
2022-10-21T10:00:02.724Z,17.99
2022-10-21T10:02:33.732Z,18.00
2022-10-21T10:05:00.470Z,18.01
2022-10-21T10:07:35.480Z,18.02
2022-10-21T10:10:22.913Z,18.03
2022-10-21T10:12:58.104Z,18.04
2022-10-21T10:15:38.883Z,18.04
2022-10-21T10:18:32.887Z,18.05
2022-10-21T10:21:11.288Z,18.05
2022-10-21T10:23:50.584Z,18.06
2022-10-21T10:26:31.826Z,18.04
2022-10-21T10:29:11.415Z,18.06
2022-10-21T10:31:39.141Z,18.05
2022-10-21T10:34:09.121Z,18.07
2022-10-21T10:36:39.745Z,18.08
2022-10-21T10:39:17.030Z,18.09
2022-10-21T10:41:48.324Z,18.11
2022-10-21T10:44:40.279Z,18.13
2022-10-21T10:47:16.846Z,18.13
2022-10-21T10:49:46.635Z,18.21
2022-10-21T10:52:13.372Z,18.27
2022-10-21T10:54:41.988Z,18.33
2022-10-21T10:57:33.949Z,18.37
2022-10-21T11:00:32.870Z,18.38
2022-10-21T11:03:14.590Z,18.43
2022-10-21T11:05:51.292Z,18.52
2022-10-21T11:08:36.503Z,18.56
2022-10-21T11:11:07.264Z,18.61
2022-10-21T11:13:37.880Z,18.67
2022-10-21T11:16:13.962Z,18.73
2022-10-21T11:18:55.596Z,18.79
2022-10-21T11:21:28.121Z,18.82
2022-10-21T11:24:17.512Z,18.90
2022-10-21T11:27:05.893Z,18.90
2022-10-21T11:29:50.596Z,18.89
2022-10-21T11:32:36.111Z,18.88
2022-10-21T11:35:03.375Z,18.89
2022-10-21T11:37:54.476Z,18.92
2022-10-21T11:40:32.276Z,18.94
2022-10-21T11:43:16.672Z,18.98
2022-10-21T11:45:49.736Z,19.02
2022-10-21T11:48:34.865Z,19.06
2022-10-21T11:51:21.810Z,19.09
2022-10-21T11:54:14.002Z,19.12
2022-10-21T11:56:50.583Z,19.12
2022-10-21T11:59:55.255Z,19.11
2022-10-21T12:02:39.696Z,19.13
2022-10-21T12:05:06.679Z,19.15
2022-10-21T12:07:51.933Z,19.15
2022-10-21T12:10:21.936Z,19.16
2022-10-21T12:12:50.671Z,19.19
2022-10-21T12:15:22.041Z,19.23
2022-10-21T12:17:49.964Z,19.26
2022-10-21T12:20:27.080Z,19.30
2022-10-21T12:23:03.872Z,19.29
2022-10-21T12:25:30.548Z,19.30
2022-10-21T12:28:32.087Z,19.30
2022-10-21T12:31:17.080Z,19.30
2022-10-21T12:33:45.826Z,19.31
2022-10-21T12:36:24.591Z,19.30
2022-10-21T12:38:51.289Z,19.26
2022-10-21T12:41:21.147Z,19.25
2022-10-21T12:44:05.645Z,19.22
2022-10-21T12:46:37.568Z,19.22
2022-10-21T12:49:32.636Z,19.23
2022-10-21T12:52:08.635Z,19.22
2022-10-21T12:55:11.628Z,19.23
2022-10-21T12:57:42.660Z,19.24
2022-10-21T13:00:28.325Z,19.27
2022-10-21T13:02:58.574Z,19.29
2022-10-21T13:06:02.219Z,19.31
2022-10-21T13:08:40.259Z,19.31
2022-10-21T13:11:09.773Z,19.33
2022-10-21T13:13:42.593Z,19.34
2022-10-21T13:16:18.710Z,19.35
2022-10-21T13:18:51.499Z,19.36
2022-10-21T13:21:35.569Z,19.36
2022-10-21T13:24:15.326Z,19.36
2022-10-21T13:26:49.549Z,19.36
2022-10-21T13:29:52.365Z,19.35
2022-10-21T13:32:33.743Z,19.33
2022-10-21T13:35:22.614Z,19.30
2022-10-21T13:37:59.725Z,19.28
2022-10-21T13:40:38.982Z,19.27
2022-10-21T13:43:13.932Z,19.30
2022-10-21T13:45:48.305Z,19.33
2022-10-21T13:48:36.857Z,19.33
2022-10-21T13:51:17.574Z,19.36
2022-10-21T13:53:48.351Z,19.35
2022-10-21T13:56:36.505Z,19.37
2022-10-21T13:59:04.901Z,19.36
2022-10-21T14:01:47.501Z,19.36
2022-10-21T14:04:16.820Z,19.38
2022-10-21T14:06:58.406Z,19.38
2022-10-21T14:09:32.288Z,19.36
2022-10-21T14:12:02.841Z,19.35
2022-10-21T14:14:31.976Z,19.37
2022-10-21T14:17:05.832Z,19.38
2022-10-21T14:19:36.861Z,19.36
2022-10-21T14:24:56.913Z,19.36
2022-10-21T14:27:31.308Z,19.35
2022-10-21T14:30:01.035Z,19.34
2022-10-21T14:32:28.262Z,19.36
2022-10-21T14:35:10.403Z,19.39
2022-10-21T14:37:44.591Z,19.38
2022-10-21T14:40:29.834Z,19.36
2022-10-21T14:42:56.801Z,19.36
2022-10-21T14:45:33.099Z,19.36
2022-10-21T14:48:11.327Z,19.35
2022-10-21T14:50:40.204Z,19.32
2022-10-21T14:53:17.139Z,19.32
2022-10-21T14:55:46.032Z,19.32
2022-10-21T14:58:35.591Z,19.33
2022-10-21T15:01:12.675Z,19.35
2022-10-21T15:03:44.044Z,19.34
2022-10-21T15:06:37.163Z,19.33
2022-10-21T15:09:06.996Z,19.35
2022-10-21T15:11:37.668Z,19.31
2022-10-21T15:14:13.746Z,19.29
2022-10-21T15:16:46.291Z,19.28
2022-10-21T15:19:21.943Z,19.29
2022-10-21T15:21:53.082Z,19.25
2022-10-21T15:24:50.419Z,19.27
2022-10-21T15:27:28.241Z,19.26
2022-10-21T15:29:55.256Z,19.25
2022-10-21T15:32:26.788Z,19.26
2022-10-21T15:34:55.177Z,19.23
2022-10-21T15:37:22.018Z,19.22
2022-10-21T15:39:49.073Z,19.22
2022-10-21T15:42:22.818Z,19.21
2022-10-21T15:44:50.511Z,19.22
2022-10-21T15:47:17.401Z,19.19
2022-10-21T15:49:46.169Z,19.20
2022-10-21T15:52:14.039Z,19.19
2022-10-21T15:54:41.255Z,19.15
2022-10-21T15:57:22.529Z,19.13
2022-10-21T15:59:49.290Z,19.10
2022-10-21T16:02:17.855Z,19.08
2022-10-21T16:04:45.314Z,19.09
2022-10-21T16:07:20.245Z,19.07
2022-10-21T16:09:47.862Z,19.07
2022-10-21T16:12:16.960Z,19.04
2022-10-21T16:14:43.703Z,19.02
2022-10-21T16:17:12.389Z,18.97
2022-10-21T16:19:39.125Z,18.96
2022-10-21T16:22:16.275Z,18.95
2022-10-21T16:24:43.033Z,18.93
2022-10-21T16:27:12.910Z,18.91
2022-10-21T16:29:40.353Z,18.89
2022-10-21T16:32:07.661Z,18.86
2022-10-21T16:34:34.396Z,18.79
2022-10-21T16:37:01.537Z,18.69
2022-10-21T16:39:28.425Z,18.61
2022-10-21T16:41:55.178Z,18.50
2022-10-21T16:44:22.357Z,18.44
2022-10-21T16:46:54.540Z,18.36
2022-10-21T16:49:25.336Z,18.32
2022-10-21T16:51:53.206Z,18.30
2022-10-21T16:54:21.440Z,18.27
2022-10-21T16:56:48.216Z,18.23
2022-10-21T16:59:15.206Z,18.21
2022-10-21T17:01:46.545Z,18.17
2022-10-21T17:04:14.697Z,18.16
2022-10-21T17:06:41.618Z,18.15
2022-10-21T17:09:09.340Z,18.16
2022-10-21T17:11:40.890Z,18.15
2022-10-21T17:14:11.827Z,18.14
2022-10-21T17:16:40.250Z,18.17
2022-10-21T17:19:08.267Z,18.22
2022-10-21T17:21:35.705Z,18.20
2022-10-21T17:24:04.012Z,18.16
2022-10-21T17:26:31.321Z,18.13
2022-10-21T17:28:58.514Z,18.13
2022-10-21T17:31:30.782Z,18.11
2022-10-21T17:34:00.271Z,18.10
2022-10-21T17:36:26.991Z,18.11
2022-10-21T17:38:53.976Z,18.11
2022-10-21T17:41:20.760Z,18.07
2022-10-21T17:43:55.634Z,18.01
2022-10-21T17:46:25.426Z,17.93
2022-10-21T17:48:53.819Z,17.88
2022-10-21T17:51:22.925Z,17.86
2022-10-21T17:53:54.930Z,17.83
2022-10-21T17:56:22.911Z,17.80
2022-10-21T17:58:51.368Z,17.81
2022-10-21T18:01:18.544Z,17.82
2022-10-21T18:03:45.536Z,17.80
2022-10-21T18:06:13.471Z,17.78
2022-10-21T18:08:40.476Z,17.77
2022-10-21T18:11:10.301Z,17.76
2022-10-21T18:13:37.921Z,17.73
2022-10-21T18:16:08.169Z,17.70
2022-10-21T18:18:35.712Z,17.69
2022-10-21T18:21:11.046Z,17.69
2022-10-21T18:23:40.621Z,17.74
2022-10-21T18:26:13.969Z,17.75
2022-10-21T18:28:41.023Z,17.73
2022-10-21T18:31:07.871Z,17.72
2022-10-21T18:33:34.865Z,17.74
2022-10-21T18:36:13.355Z,17.78
2022-10-21T18:38:40.816Z,17.77
2022-10-21T18:41:19.648Z,17.77
2022-10-21T18:43:49.871Z,17.80
2022-10-21T18:46:16.891Z,17.79
2022-10-21T18:48:43.986Z,17.80
2022-10-21T18:51:12.392Z,17.80
2022-10-21T18:53:39.736Z,17.82
2022-10-21T18:56:08.911Z,17.82
2022-10-21T18:58:36.659Z,17.84
2022-10-21T19:01:04.769Z,17.86
2022-10-21T19:03:31.898Z,17.84
2022-10-21T19:06:15.194Z,17.81
2022-10-21T19:08:42.136Z,17.83
2022-10-21T19:11:09.005Z,17.85
2022-10-21T19:13:36.038Z,17.85
2022-10-21T19:16:02.767Z,17.88
2022-10-21T19:18:29.658Z,17.87
2022-10-21T19:20:56.960Z,17.88
2022-10-21T19:23:23.929Z,17.89
2022-10-21T19:25:50.663Z,17.90
2022-10-21T19:28:17.433Z,17.90
2022-10-21T19:30:45.834Z,17.91
2022-10-21T19:33:12.565Z,17.92
2022-10-21T19:35:39.375Z,17.93
2022-10-21T19:38:11.565Z,17.93
2022-10-21T19:40:42.779Z,17.92
2022-10-21T19:43:09.847Z,17.95
2022-10-21T19:45:37.287Z,17.98
2022-10-21T19:48:04.323Z,18.01
2022-10-21T19:50:31.124Z,18.02
2022-10-21T19:52:57.861Z,18.01
2022-10-21T19:55:24.671Z,18.02
2022-10-21T19:57:51.408Z,18.03
2022-10-21T20:00:18.213Z,18.02
2022-10-21T20:02:44.983Z,18.01
2022-10-21T20:05:11.844Z,18.01
2022-10-21T20:07:39.472Z,18.01
2022-10-21T20:10:06.780Z,18.01
2022-10-21T20:12:33.595Z,18.01
2022-10-21T20:15:00.518Z,18.01
2022-10-21T20:17:27.468Z,18.01
2022-10-21T20:19:54.358Z,18.02
2022-10-21T20:22:23.439Z,18.04
2022-10-21T20:24:53.059Z,18.05
2022-10-21T20:27:19.786Z,18.02
2022-10-21T20:29:46.487Z,18.02
2022-10-21T20:32:13.544Z,18.01
2022-10-21T20:34:40.445Z,18.03
2022-10-21T20:37:07.200Z,18.04
2022-10-21T20:39:33.964Z,18.06
2022-10-21T20:42:00.731Z,18.02
2022-10-21T20:44:27.473Z,18.01
2022-10-21T20:46:54.374Z,18.02
2022-10-21T20:49:21.134Z,18.02
2022-10-21T20:51:48.031Z,18.03
2022-10-21T20:54:17.626Z,18.03
2022-10-21T20:56:45.050Z,18.01
2022-10-21T20:59:17.041Z,18.03
2022-10-21T21:01:46.255Z,18.02
2022-10-21T21:04:15.261Z,18.02
2022-10-21T21:06:47.237Z,18.04
2022-10-21T21:09:37.618Z,18.05
2022-10-21T21:12:03.995Z,18.04
2022-10-21T21:14:31.459Z,18.05
2022-10-21T21:16:58.282Z,18.07
2022-10-21T21:19:25.904Z,18.08
2022-10-21T21:21:53.420Z,18.10
2022-10-21T21:24:20.331Z,18.10
2022-10-21T21:26:47.191Z,18.10
2022-10-21T21:29:14.562Z,18.09
2022-10-21T21:31:42.257Z,18.07
2022-10-21T21:34:10.076Z,18.07
2022-10-21T21:36:37.466Z,18.07
2022-10-21T21:39:05.412Z,18.07
2022-10-21T21:41:32.286Z,18.08
2022-10-21T21:43:59.172Z,18.08
2022-10-21T21:46:26.523Z,18.09
2022-10-21T21:48:59.556Z,18.09
2022-10-21T21:51:30.511Z,18.10
2022-10-21T21:53:58.456Z,18.10
2022-10-21T21:56:26.513Z,18.08
2022-10-21T21:58:58.219Z,18.06
2022-10-21T22:01:31.961Z,18.04
2022-10-21T22:04:00.444Z,18.04
2022-10-21T22:06:33.390Z,18.05
2022-10-21T22:09:01.328Z,18.05
2022-10-21T22:11:32.077Z,18.04
2022-10-21T22:13:59.590Z,18.05
2022-10-21T22:16:30.522Z,18.07
2022-10-21T22:18:59.891Z,18.07
2022-10-21T22:21:30.805Z,18.06
2022-10-21T22:23:57.694Z,18.04
2022-10-21T22:26:27.064Z,18.00
2022-10-21T22:28:54.788Z,17.94
2022-10-21T22:31:27.349Z,17.92
2022-10-21T22:33:57.390Z,17.86
2022-10-21T22:36:24.167Z,17.82
2022-10-21T22:38:50.873Z,17.76
2022-10-21T22:41:17.802Z,17.69
2022-10-21T22:43:44.659Z,17.63
2022-10-21T22:48:58.205Z,17.57
2022-10-21T22:51:25.019Z,17.53
2022-10-21T22:53:55.341Z,17.53
2022-10-21T22:56:25.570Z,17.49
2022-10-21T22:58:52.345Z,17.48
2022-10-21T23:01:19.730Z,17.43
2022-10-21T23:03:46.482Z,17.41
2022-10-21T23:06:13.200Z,17.37
2022-10-21T23:08:40.180Z,17.36
2022-10-21T23:11:07.177Z,17.36
2022-10-21T23:13:34.096Z,17.35
2022-10-21T23:16:00.980Z,17.34
2022-10-21T23:18:31.861Z,17.33
2022-10-21T23:20:58.614Z,17.34
2022-10-21T23:23:25.485Z,17.34
2022-10-21T23:25:52.333Z,17.35
2022-10-21T23:28:25.498Z,17.39
2022-10-21T23:30:52.236Z,17.38
2022-10-21T23:33:19.011Z,17.36
2022-10-21T23:35:45.968Z,17.34
2022-10-21T23:38:12.985Z,17.32
2022-10-21T23:40:39.841Z,17.31
2022-10-21T23:43:06.566Z,17.33
2022-10-21T23:45:33.456Z,17.33
2022-10-21T23:48:00.340Z,17.31
2022-10-21T23:50:27.188Z,17.30
2022-10-21T23:52:54.109Z,17.25
2022-10-21T23:55:20.932Z,17.23
2022-10-21T23:57:47.712Z,17.22
